ETD67R OPKC-OMAA
Flight info
| Callsign | ETD67R |
|---|---|
| Flight time | 1h 13m |
| Altitude | 38000 |
| Route | MELOM A325 PARET A454 VUSET R462 MIXAM P899 ROVOS |
| Aircraft | A346/H-SDE2E3FGHIJ3J4J5M1RWXY/LB1D1 |
Departure
| Time | 2026-05-07 06:08 |
|---|---|
| Airport | Jinnah International Airport (OPKC) |
Arrival
| Time | 2026-05-07 07:21 |
|---|---|
| Airport | Zayed International Airport (OMAA) |
| Time | Latitude | Longitude | Altitude | Speed | Heading |
|---|---|---|---|---|---|
| 2026-05-07 05:50 | 24.90335 | 67.16903 | 108 ft | 0 kts | 163° |
| 2026-05-07 05:59 | 24.90340 | 67.16902 | 108 ft | 4 kts | 155° |
| 2026-05-07 06:00 | 24.90347 | 67.16894 | 105 ft | 4 kts | 135° |
| 2026-05-07 06:00 | 24.90367 | 67.16874 | 107 ft | 4 kts | 138° |
| 2026-05-07 06:00 | 24.90387 | 67.16854 | 105 ft | 4 kts | 135° |
| 2026-05-07 06:00 | 24.90403 | 67.16832 | 107 ft | 3 kts | 122° |
| 2026-05-07 06:01 | 24.90407 | 67.16826 | 107 ft | 0 kts | 121° |
| 2026-05-07 06:03 | 24.90406 | 67.16826 | 107 ft | 1 kts | 121° |
| 2026-05-07 06:03 | 24.90401 | 67.16847 | 106 ft | 3 kts | 88° |
| 2026-05-07 06:04 | 24.90412 | 67.16888 | 106 ft | 7 kts | 79° |
| 2026-05-07 06:04 | 24.90427 | 67.16957 | 111 ft | 11 kts | 73° |
| 2026-05-07 06:04 | 24.90475 | 67.17028 | 111 ft | 13 kts | 25° |
| 2026-05-07 06:04 | 24.90552 | 67.17055 | 112 ft | 12 kts | 46° |
| 2026-05-07 06:05 | 24.90592 | 67.17147 | 111 ft | 14 kts | 70° |
| 2026-05-07 06:05 | 24.90629 | 67.17270 | 113 ft | 19 kts | 71° |
| 2026-05-07 06:05 | 24.90690 | 67.17411 | 112 ft | 22 kts | 47° |
| 2026-05-07 06:05 | 24.90805 | 67.17479 | 111 ft | 12 kts | 3° |
| 2026-05-07 06:06 | 24.90853 | 67.17415 | 112 ft | 13 kts | 273° |
| 2026-05-07 06:06 | 24.90842 | 67.17349 | 113 ft | 0 kts | 254° |
| 2026-05-07 06:06 | 24.90842 | 67.17348 | 113 ft | 0 kts | 254° |
| 2026-05-07 06:06 | 24.90842 | 67.17346 | 111 ft | 0 kts | 254° |
| 2026-05-07 06:07 | 24.90841 | 67.17345 | 111 ft | 1 kts | 254° |
| 2026-05-07 06:07 | 24.90769 | 67.17061 | 111 ft | 83 kts | 254° |
| 2026-05-07 06:07 | 24.90632 | 67.16520 | 109 ft | 136 kts | 254° |
| 2026-05-07 06:08 | 24.90216 | 67.14923 | 736 ft | 172 kts | 253° |
| 2026-05-07 06:08 | 24.89815 | 67.13675 | 1712 ft | 173 kts | 241° |
| 2026-05-07 06:08 | 24.89078 | 67.12655 | 2628 ft | 173 kts | 225° |
| 2026-05-07 06:08 | 24.88464 | 67.12037 | 2911 ft | 181 kts | 230° |
| 2026-05-07 06:09 | 24.87576 | 67.10987 | 3336 ft | 194 kts | 231° |
| 2026-05-07 06:09 | 24.86635 | 67.09838 | 3675 ft | 210 kts | 230° |
| 2026-05-07 06:09 | 24.85608 | 67.08607 | 4017 ft | 227 kts | 230° |
| 2026-05-07 06:09 | 24.84491 | 67.07284 | 4357 ft | 245 kts | 229° |
| 2026-05-07 06:10 | 24.83288 | 67.05857 | 4793 ft | 260 kts | 228° |
| 2026-05-07 06:10 | 24.82044 | 67.04402 | 5571 ft | 261 kts | 228° |
| 2026-05-07 06:10 | 24.80787 | 67.02948 | 6321 ft | 264 kts | 229° |
| 2026-05-07 06:10 | 24.79523 | 67.01465 | 7027 ft | 267 kts | 231° |
| 2026-05-07 06:11 | 24.78582 | 66.99704 | 7538 ft | 274 kts | 258° |
| 2026-05-07 06:11 | 24.78385 | 66.97582 | 8064 ft | 283 kts | 272° |
| 2026-05-07 06:11 | 24.78388 | 66.95395 | 8813 ft | 287 kts | 273° |
| 2026-05-07 06:11 | 24.78384 | 66.93219 | 9633 ft | 289 kts | 272° |
| 2026-05-07 06:12 | 24.78346 | 66.90961 | 10357 ft | 295 kts | 271° |
| 2026-05-07 06:12 | 24.78281 | 66.88637 | 10801 ft | 312 kts | 271° |
| 2026-05-07 06:12 | 24.78189 | 66.86182 | 11176 ft | 330 kts | 271° |
| 2026-05-07 06:12 | 24.78081 | 66.83622 | 11581 ft | 346 kts | 271° |
| 2026-05-07 06:13 | 24.77955 | 66.80977 | 12469 ft | 344 kts | 271° |
| 2026-05-07 06:13 | 24.77821 | 66.78349 | 13444 ft | 344 kts | 271° |
| 2026-05-07 06:13 | 24.77689 | 66.75705 | 14197 ft | 347 kts | 271° |
| 2026-05-07 06:13 | 24.77560 | 66.73027 | 14883 ft | 353 kts | 271° |
| 2026-05-07 06:14 | 24.77428 | 66.70306 | 15504 ft | 361 kts | 270° |
| 2026-05-07 06:14 | 24.77288 | 66.67499 | 15990 ft | 372 kts | 270° |
| 2026-05-07 06:14 | 24.77140 | 66.64624 | 16638 ft | 378 kts | 269° |
| 2026-05-07 06:14 | 24.76989 | 66.61719 | 17375 ft | 382 kts | 269° |
| 2026-05-07 06:15 | 24.76833 | 66.58780 | 18070 ft | 387 kts | 269° |
| 2026-05-07 06:15 | 24.76675 | 66.55798 | 18678 ft | 391 kts | 269° |
| 2026-05-07 06:15 | 24.76512 | 66.52796 | 19331 ft | 393 kts | 269° |
| 2026-05-07 06:15 | 24.76348 | 66.49784 | 19979 ft | 396 kts | 269° |
| 2026-05-07 06:16 | 24.76182 | 66.46718 | 20298 ft | 408 kts | 269° |
| 2026-05-07 06:16 | 24.76013 | 66.43552 | 20616 ft | 419 kts | 269° |
| 2026-05-07 06:16 | 24.75839 | 66.40328 | 21143 ft | 423 kts | 269° |
| 2026-05-07 06:16 | 24.75663 | 66.37090 | 21773 ft | 424 kts | 270° |
| 2026-05-07 06:17 | 24.75485 | 66.33840 | 22372 ft | 426 kts | 270° |
| 2026-05-07 06:17 | 24.75306 | 66.30569 | 22946 ft | 429 kts | 270° |
| 2026-05-07 06:17 | 24.75127 | 66.27283 | 23479 ft | 431 kts | 270° |
| 2026-05-07 06:17 | 24.74947 | 66.23974 | 23917 ft | 434 kts | 270° |
| 2026-05-07 06:18 | 24.74766 | 66.20649 | 24373 ft | 436 kts | 270° |
| 2026-05-07 06:18 | 24.74584 | 66.17314 | 24833 ft | 438 kts | 270° |
| 2026-05-07 06:18 | 24.74399 | 66.13957 | 25303 ft | 439 kts | 270° |
| 2026-05-07 06:18 | 24.74213 | 66.10592 | 25764 ft | 441 kts | 270° |
| 2026-05-07 06:19 | 24.74025 | 66.07215 | 26226 ft | 443 kts | 270° |
| 2026-05-07 06:19 | 24.73835 | 66.03801 | 26491 ft | 450 kts | 270° |
| 2026-05-07 06:19 | 24.73641 | 66.00335 | 26798 ft | 455 kts | 270° |
| 2026-05-07 06:19 | 24.73444 | 65.96848 | 27226 ft | 457 kts | 270° |
| 2026-05-07 06:20 | 24.73244 | 65.93347 | 27679 ft | 459 kts | 270° |
| 2026-05-07 06:20 | 24.73045 | 65.89830 | 28099 ft | 461 kts | 270° |
| 2026-05-07 06:20 | 24.72843 | 65.86298 | 28572 ft | 462 kts | 269° |
| 2026-05-07 06:20 | 24.72639 | 65.82780 | 29207 ft | 459 kts | 269° |
| 2026-05-07 06:21 | 24.72437 | 65.79292 | 29886 ft | 455 kts | 269° |
| 2026-05-07 06:21 | 24.72234 | 65.75823 | 30438 ft | 452 kts | 269° |
| 2026-05-07 06:21 | 24.72033 | 65.72380 | 30961 ft | 450 kts | 269° |
| 2026-05-07 06:21 | 24.71832 | 65.68942 | 31460 ft | 449 kts | 269° |
| 2026-05-07 06:22 | 24.71631 | 65.65519 | 31965 ft | 447 kts | 269° |
| 2026-05-07 06:22 | 24.71231 | 65.58712 | 32977 ft | 444 kts | 269° |
| 2026-05-07 06:22 | 24.71031 | 65.55324 | 33465 ft | 443 kts | 269° |
| 2026-05-07 06:23 | 24.70829 | 65.51942 | 33927 ft | 442 kts | 269° |
| 2026-05-07 06:23 | 24.70628 | 65.48575 | 34354 ft | 440 kts | 268° |
| 2026-05-07 06:23 | 24.70426 | 65.45220 | 34783 ft | 439 kts | 268° |
| 2026-05-07 06:23 | 24.70224 | 65.41869 | 35218 ft | 437 kts | 268° |
| 2026-05-07 06:24 | 24.70026 | 65.38584 | 35631 ft | 435 kts | 268° |
| 2026-05-07 06:24 | 24.69824 | 65.35256 | 36034 ft | 434 kts | 268° |
| 2026-05-07 06:24 | 24.69622 | 65.31942 | 36404 ft | 434 kts | 268° |
| 2026-05-07 06:24 | 24.69419 | 65.28623 | 36720 ft | 435 kts | 268° |
| 2026-05-07 06:25 | 24.69216 | 65.25296 | 37013 ft | 436 kts | 268° |
| 2026-05-07 06:25 | 24.69010 | 65.21953 | 37322 ft | 438 kts | 268° |
| 2026-05-07 06:25 | 24.68803 | 65.18610 | 37669 ft | 438 kts | 267° |
| 2026-05-07 06:25 | 24.68593 | 65.15215 | 37792 ft | 443 kts | 267° |
| 2026-05-07 06:26 | 24.68162 | 65.08335 | 37805 ft | 455 kts | 267° |
| 2026-05-07 06:26 | 24.67723 | 65.01365 | 37798 ft | 457 kts | 267° |
| 2026-05-07 06:27 | 24.67282 | 64.94392 | 37792 ft | 457 kts | 267° |
| 2026-05-07 06:27 | 24.66837 | 64.87410 | 37800 ft | 457 kts | 267° |
| 2026-05-07 06:28 | 24.66388 | 64.80429 | 37793 ft | 457 kts | 267° |
| 2026-05-07 06:28 | 24.65936 | 64.73439 | 37801 ft | 457 kts | 267° |
| 2026-05-07 06:29 | 24.65481 | 64.66455 | 37793 ft | 457 kts | 267° |
| 2026-05-07 06:29 | 24.65022 | 64.59472 | 37797 ft | 457 kts | 267° |
| 2026-05-07 06:30 | 24.64561 | 64.52492 | 37797 ft | 457 kts | 267° |
| 2026-05-07 06:30 | 24.64096 | 64.45508 | 37801 ft | 457 kts | 267° |
| 2026-05-07 06:31 | 24.63628 | 64.38524 | 37795 ft | 457 kts | 267° |
| 2026-05-07 06:31 | 24.63158 | 64.31541 | 37804 ft | 458 kts | 267° |
| 2026-05-07 06:32 | 24.62683 | 64.24555 | 37797 ft | 458 kts | 267° |
| 2026-05-07 06:32 | 24.62204 | 64.17563 | 37808 ft | 458 kts | 267° |
| 2026-05-07 06:33 | 24.61726 | 64.10622 | 37799 ft | 458 kts | 267° |
| 2026-05-07 06:33 | 24.61241 | 64.03629 | 37802 ft | 458 kts | 266° |
| 2026-05-07 06:34 | 24.60752 | 63.96618 | 37807 ft | 459 kts | 266° |
| 2026-05-07 06:34 | 24.60259 | 63.89612 | 37806 ft | 459 kts | 266° |
| 2026-05-07 06:35 | 24.59764 | 63.82610 | 37805 ft | 459 kts | 266° |
| 2026-05-07 06:35 | 24.59265 | 63.75605 | 37796 ft | 459 kts | 266° |
| 2026-05-07 06:36 | 24.58763 | 63.68600 | 37805 ft | 459 kts | 266° |
| 2026-05-07 06:36 | 24.58258 | 63.61600 | 37796 ft | 459 kts | 266° |
| 2026-05-07 06:37 | 23.72272 | 58.06837 | 36155 ft | 494 kts | 258° |
| 2026-05-07 06:37 | 23.71640 | 58.03210 | 36418 ft | 477 kts | 260° |
| 2026-05-07 06:37 | 23.70739 | 57.96117 | 36546 ft | 470 kts | 267° |
| 2026-05-07 06:38 | 23.70680 | 57.92562 | 36995 ft | 466 kts | 271° |
| 2026-05-07 06:38 | 23.70823 | 57.89050 | 37553 ft | 461 kts | 274° |
| 2026-05-07 06:38 | 23.71151 | 57.85558 | 37819 ft | 462 kts | 277° |
| 2026-05-07 06:38 | 23.71671 | 57.82080 | 37824 ft | 465 kts | 280° |
| 2026-05-07 06:39 | 23.73128 | 57.75168 | 37837 ft | 467 kts | 282° |
| 2026-05-07 06:39 | 23.74648 | 57.68276 | 37834 ft | 466 kts | 282° |
| 2026-05-07 06:40 | 23.76153 | 57.61396 | 37833 ft | 465 kts | 282° |
| 2026-05-07 06:40 | 23.77651 | 57.54506 | 37838 ft | 465 kts | 282° |
| 2026-05-07 06:41 | 23.79141 | 57.47617 | 37835 ft | 466 kts | 282° |
| 2026-05-07 06:41 | 23.80619 | 57.40769 | 37831 ft | 466 kts | 282° |
| 2026-05-07 06:42 | 23.82106 | 57.33869 | 37837 ft | 466 kts | 282° |
| 2026-05-07 06:42 | 23.83589 | 57.26965 | 37851 ft | 466 kts | 282° |
| 2026-05-07 06:43 | 23.85069 | 57.20062 | 37843 ft | 466 kts | 282° |
| 2026-05-07 06:43 | 23.86535 | 57.13211 | 37871 ft | 453 kts | 282° |
| 2026-05-07 06:44 | 23.87976 | 57.06463 | 37851 ft | 458 kts | 282° |
| 2026-05-07 06:44 | 23.89424 | 56.99658 | 37855 ft | 459 kts | 282° |
| 2026-05-07 06:45 | 23.90869 | 56.92855 | 37869 ft | 459 kts | 282° |
| 2026-05-07 06:45 | 23.92312 | 56.86049 | 37868 ft | 459 kts | 282° |
| 2026-05-07 06:46 | 23.93745 | 56.79284 | 37583 ft | 453 kts | 281° |
| 2026-05-07 06:46 | 23.94455 | 56.75919 | 36818 ft | 455 kts | 281° |
| 2026-05-07 06:46 | 23.95168 | 56.72531 | 36012 ft | 458 kts | 281° |
| 2026-05-07 06:47 | 23.95885 | 56.69125 | 35292 ft | 460 kts | 281° |
| 2026-05-07 06:47 | 23.96602 | 56.65713 | 34662 ft | 459 kts | 281° |
| 2026-05-07 06:47 | 23.97319 | 56.62305 | 34017 ft | 460 kts | 281° |
| 2026-05-07 06:47 | 23.98036 | 56.58888 | 33232 ft | 461 kts | 282° |
| 2026-05-07 06:48 | 23.98754 | 56.55460 | 32435 ft | 464 kts | 282° |
| 2026-05-07 06:48 | 23.99478 | 56.52000 | 31684 ft | 469 kts | 282° |
| 2026-05-07 06:48 | 24.00199 | 56.48553 | 30950 ft | 473 kts | 282° |
| 2026-05-07 06:48 | 24.00942 | 56.44990 | 30318 ft | 472 kts | 282° |
| 2026-05-07 06:49 | 24.01661 | 56.41550 | 29685 ft | 469 kts | 282° |
| 2026-05-07 06:49 | 24.02386 | 56.38071 | 28959 ft | 467 kts | 282° |
| 2026-05-07 06:49 | 24.03106 | 56.34603 | 28114 ft | 467 kts | 282° |
| 2026-05-07 06:49 | 24.03839 | 56.31130 | 27355 ft | 470 kts | 283° |
| 2026-05-07 06:50 | 24.04712 | 56.27655 | 26834 ft | 475 kts | 286° |
| 2026-05-07 06:50 | 24.05748 | 56.24237 | 26291 ft | 470 kts | 289° |
| 2026-05-07 06:50 | 24.06900 | 56.20890 | 25768 ft | 464 kts | 290° |
| 2026-05-07 06:50 | 24.08048 | 56.17614 | 25340 ft | 458 kts | 290° |
| 2026-05-07 06:51 | 24.09195 | 56.14358 | 24975 ft | 457 kts | 290° |
| 2026-05-07 06:51 | 24.10345 | 56.11089 | 24473 ft | 463 kts | 291° |
| 2026-05-07 06:51 | 24.11502 | 56.07795 | 23987 ft | 461 kts | 291° |
| 2026-05-07 06:51 | 24.12645 | 56.04538 | 23437 ft | 456 kts | 291° |
| 2026-05-07 06:52 | 24.13777 | 56.01308 | 22813 ft | 451 kts | 291° |
| 2026-05-07 06:52 | 24.14891 | 55.98127 | 22279 ft | 445 kts | 291° |
| 2026-05-07 06:52 | 24.15992 | 55.94983 | 21801 ft | 438 kts | 291° |
| 2026-05-07 06:52 | 24.17072 | 55.91893 | 21256 ft | 429 kts | 291° |
| 2026-05-07 06:53 | 24.18128 | 55.88870 | 20855 ft | 420 kts | 291° |
| 2026-05-07 06:53 | 24.19162 | 55.85899 | 20428 ft | 414 kts | 291° |
| 2026-05-07 06:53 | 24.20183 | 55.82970 | 20040 ft | 410 kts | 291° |
| 2026-05-07 06:53 | 24.21158 | 55.80026 | 19533 ft | 409 kts | 290° |
| 2026-05-07 06:54 | 24.21976 | 55.77041 | 19049 ft | 408 kts | 286° |
| 2026-05-07 06:54 | 24.22726 | 55.74013 | 18586 ft | 416 kts | 285° |
| 2026-05-07 06:54 | 24.23468 | 55.70955 | 18177 ft | 412 kts | 285° |
| 2026-05-07 06:54 | 24.24197 | 55.67942 | 17734 ft | 406 kts | 286° |
| 2026-05-07 06:55 | 24.24922 | 55.64961 | 17328 ft | 400 kts | 286° |
| 2026-05-07 06:55 | 24.25632 | 55.62034 | 16913 ft | 395 kts | 285° |
| 2026-05-07 06:55 | 24.26267 | 55.59123 | 16482 ft | 390 kts | 283° |
| 2026-05-07 06:55 | 24.26643 | 55.57201 | 16243 ft | 386 kts | 283° |
| 2026-05-07 06:56 | 24.27198 | 55.54339 | 15925 ft | 380 kts | 282° |
| 2026-05-07 06:56 | 24.27742 | 55.51508 | 15719 ft | 379 kts | 282° |
| 2026-05-07 06:56 | 24.28285 | 55.48691 | 15559 ft | 374 kts | 282° |
| 2026-05-07 06:56 | 24.28813 | 55.45939 | 15407 ft | 362 kts | 282° |
| 2026-05-07 06:57 | 24.29322 | 55.43281 | 15316 ft | 349 kts | 282° |
| 2026-05-07 06:57 | 24.29817 | 55.40711 | 15163 ft | 339 kts | 283° |
| 2026-05-07 06:57 | 24.30281 | 55.38222 | 15085 ft | 328 kts | 279° |
| 2026-05-07 06:57 | 24.30238 | 55.35738 | 14971 ft | 328 kts | 258° |
| 2026-05-07 06:58 | 24.29437 | 55.33409 | 15010 ft | 327 kts | 243° |
| 2026-05-07 06:58 | 24.28383 | 55.31202 | 15047 ft | 327 kts | 242° |
| 2026-05-07 06:58 | 24.27304 | 55.29007 | 15049 ft | 327 kts | 242° |
| 2026-05-07 06:58 | 24.26228 | 55.26808 | 15042 ft | 327 kts | 242° |
| 2026-05-07 06:59 | 24.25156 | 55.24601 | 15008 ft | 329 kts | 242° |
| 2026-05-07 06:59 | 24.24085 | 55.22382 | 15033 ft | 328 kts | 242° |
| 2026-05-07 06:59 | 24.23022 | 55.20170 | 15016 ft | 328 kts | 242° |
| 2026-05-07 06:59 | 24.21962 | 55.17961 | 15014 ft | 327 kts | 242° |
| 2026-05-07 07:00 | 24.20901 | 55.15747 | 15008 ft | 328 kts | 242° |
| 2026-05-07 07:00 | 24.19839 | 55.13532 | 15004 ft | 329 kts | 242° |
| 2026-05-07 07:00 | 24.18774 | 55.11313 | 15005 ft | 329 kts | 242° |
| 2026-05-07 07:00 | 24.17711 | 55.09096 | 14997 ft | 328 kts | 242° |
| 2026-05-07 07:01 | 24.16649 | 55.06886 | 15010 ft | 327 kts | 242° |
| 2026-05-07 07:01 | 24.15589 | 55.04678 | 14990 ft | 328 kts | 242° |
| 2026-05-07 07:01 | 24.14526 | 55.02467 | 14985 ft | 329 kts | 242° |
| 2026-05-07 07:01 | 24.13467 | 55.00252 | 14767 ft | 326 kts | 245° |
| 2026-05-07 07:02 | 24.12876 | 54.97871 | 14355 ft | 324 kts | 271° |
| 2026-05-07 07:02 | 24.13338 | 54.95481 | 13972 ft | 319 kts | 297° |
| 2026-05-07 07:02 | 24.14593 | 54.93496 | 13626 ft | 315 kts | 310° |
| 2026-05-07 07:02 | 24.15970 | 54.91637 | 13291 ft | 313 kts | 310° |
| 2026-05-07 07:03 | 24.17332 | 54.89778 | 12945 ft | 312 kts | 309° |
| 2026-05-07 07:03 | 24.18679 | 54.87919 | 12614 ft | 310 kts | 309° |
| 2026-05-07 07:03 | 24.19997 | 54.86089 | 12282 ft | 309 kts | 309° |
| 2026-05-07 07:03 | 24.21326 | 54.84236 | 11895 ft | 310 kts | 309° |
| 2026-05-07 07:04 | 24.22653 | 54.82379 | 11563 ft | 307 kts | 309° |
| 2026-05-07 07:04 | 24.23967 | 54.80539 | 11241 ft | 306 kts | 309° |
| 2026-05-07 07:04 | 24.25275 | 54.78705 | 10893 ft | 304 kts | 309° |
| 2026-05-07 07:04 | 24.26577 | 54.76880 | 10563 ft | 303 kts | 309° |
| 2026-05-07 07:05 | 24.27869 | 54.75065 | 10232 ft | 302 kts | 309° |
| 2026-05-07 07:05 | 24.29156 | 54.73257 | 9936 ft | 300 kts | 309° |
| 2026-05-07 07:05 | 24.30441 | 54.71452 | 9610 ft | 298 kts | 309° |
| 2026-05-07 07:05 | 24.31713 | 54.69662 | 9283 ft | 296 kts | 309° |
| 2026-05-07 07:06 | 24.32976 | 54.67886 | 8967 ft | 294 kts | 309° |
| 2026-05-07 07:06 | 24.34235 | 54.66118 | 8952 ft | 294 kts | 309° |
| 2026-05-07 07:06 | 24.35499 | 54.64343 | 8954 ft | 295 kts | 309° |
| 2026-05-07 07:06 | 24.36761 | 54.62566 | 8961 ft | 295 kts | 309° |
| 2026-05-07 07:07 | 24.38025 | 54.60786 | 8958 ft | 295 kts | 309° |
| 2026-05-07 07:07 | 24.39289 | 54.59007 | 8960 ft | 295 kts | 309° |
| 2026-05-07 07:07 | 24.40550 | 54.57229 | 8956 ft | 295 kts | 309° |
| 2026-05-07 07:07 | 24.41812 | 54.55451 | 8960 ft | 296 kts | 309° |
| 2026-05-07 07:08 | 24.43076 | 54.53669 | 8960 ft | 296 kts | 309° |
| 2026-05-07 07:08 | 24.44342 | 54.51886 | 8959 ft | 296 kts | 309° |
| 2026-05-07 07:08 | 24.45609 | 54.50109 | 8961 ft | 295 kts | 309° |
| 2026-05-07 07:08 | 24.46874 | 54.48327 | 8962 ft | 295 kts | 310° |
| 2026-05-07 07:09 | 24.48137 | 54.46552 | 8959 ft | 295 kts | 310° |
| 2026-05-07 07:09 | 24.49399 | 54.44778 | 8962 ft | 295 kts | 310° |
| 2026-05-07 07:09 | 24.50663 | 54.42998 | 8961 ft | 294 kts | 310° |
| 2026-05-07 07:09 | 24.51923 | 54.41224 | 8961 ft | 294 kts | 310° |
| 2026-05-07 07:10 | 24.53183 | 54.39453 | 8958 ft | 294 kts | 310° |
| 2026-05-07 07:10 | 24.54444 | 54.37680 | 8955 ft | 294 kts | 310° |
| 2026-05-07 07:10 | 24.55687 | 54.35934 | 8937 ft | 294 kts | 310° |
| 2026-05-07 07:10 | 24.56952 | 54.34153 | 8820 ft | 288 kts | 310° |
| 2026-05-07 07:11 | 24.58178 | 54.32427 | 8541 ft | 284 kts | 310° |
| 2026-05-07 07:11 | 24.59382 | 54.30728 | 8264 ft | 280 kts | 310° |
| 2026-05-07 07:11 | 24.60569 | 54.29050 | 7996 ft | 276 kts | 310° |
| 2026-05-07 07:11 | 24.61736 | 54.27398 | 7745 ft | 271 kts | 310° |
| 2026-05-07 07:12 | 24.62886 | 54.25769 | 7511 ft | 267 kts | 311° |
| 2026-05-07 07:12 | 24.64201 | 54.24405 | 7254 ft | 255 kts | 338° |
| 2026-05-07 07:12 | 24.65877 | 54.24121 | 7019 ft | 241 kts | 15° |
| 2026-05-07 07:12 | 24.67322 | 54.24934 | 6812 ft | 232 kts | 39° |
| 2026-05-07 07:13 | 24.68471 | 54.26129 | 6560 ft | 230 kts | 57° |
| 2026-05-07 07:13 | 24.68962 | 54.27777 | 6304 ft | 229 kts | 88° |
| 2026-05-07 07:13 | 24.68583 | 54.29469 | 6034 ft | 233 kts | 118° |
| 2026-05-07 07:13 | 24.67608 | 54.30902 | 5781 ft | 234 kts | 125° |
| 2026-05-07 07:14 | 24.66594 | 54.32302 | 5526 ft | 233 kts | 124° |
| 2026-05-07 07:14 | 24.65591 | 54.33693 | 5267 ft | 232 kts | 125° |
| 2026-05-07 07:14 | 24.64588 | 54.35078 | 5019 ft | 230 kts | 125° |
| 2026-05-07 07:14 | 24.63593 | 54.36455 | 4959 ft | 230 kts | 124° |
| 2026-05-07 07:15 | 24.62599 | 54.37841 | 4948 ft | 231 kts | 125° |
| 2026-05-07 07:15 | 24.61614 | 54.39221 | 4972 ft | 225 kts | 124° |
| 2026-05-07 07:15 | 24.60669 | 54.40548 | 4860 ft | 216 kts | 124° |
| 2026-05-07 07:15 | 24.59750 | 54.41842 | 4593 ft | 213 kts | 124° |
| 2026-05-07 07:16 | 24.58845 | 54.43122 | 4344 ft | 210 kts | 124° |
| 2026-05-07 07:16 | 24.57956 | 54.44381 | 4079 ft | 207 kts | 124° |
| 2026-05-07 07:16 | 24.57083 | 54.45618 | 3845 ft | 203 kts | 124° |
| 2026-05-07 07:16 | 24.56229 | 54.46826 | 3585 ft | 197 kts | 124° |
| 2026-05-07 07:17 | 24.55394 | 54.48007 | 3359 ft | 194 kts | 124° |
| 2026-05-07 07:17 | 24.54572 | 54.49171 | 3130 ft | 191 kts | 124° |
| 2026-05-07 07:17 | 24.53761 | 54.50320 | 2883 ft | 187 kts | 125° |
| 2026-05-07 07:17 | 24.52983 | 54.51421 | 2642 ft | 177 kts | 125° |
| 2026-05-07 07:18 | 24.52258 | 54.52449 | 2382 ft | 163 kts | 127° |
| 2026-05-07 07:18 | 24.51588 | 54.53395 | 2184 ft | 154 kts | 126° |
| 2026-05-07 07:18 | 24.50936 | 54.54323 | 1993 ft | 154 kts | 128° |
| 2026-05-07 07:18 | 24.50264 | 54.55275 | 1850 ft | 158 kts | 129° |
| 2026-05-07 07:19 | 24.49599 | 54.56219 | 1651 ft | 156 kts | 130° |
| 2026-05-07 07:19 | 24.48928 | 54.57167 | 1470 ft | 157 kts | 130° |
| 2026-05-07 07:19 | 24.48265 | 54.58106 | 1262 ft | 154 kts | 131° |
| 2026-05-07 07:19 | 24.47605 | 54.59038 | 1051 ft | 155 kts | 130° |
| 2026-05-07 07:20 | 24.46942 | 54.59976 | 897 ft | 155 kts | 130° |
| 2026-05-07 07:20 | 24.46299 | 54.60919 | 702 ft | 154 kts | 129° |
| 2026-05-07 07:20 | 24.45646 | 54.61860 | 467 ft | 155 kts | 131° |
| 2026-05-07 07:20 | 24.44978 | 54.62787 | 298 ft | 157 kts | 132° |
| 2026-05-07 07:21 | 24.44301 | 54.63727 | 87 ft | 153 kts | 130° |
| 2026-05-07 07:21 | 24.43751 | 54.64485 | 66 ft | 92 kts | 128° |
| 2026-05-07 07:21 | 24.43454 | 54.64905 | 64 ft | 62 kts | 128° |
| 2026-05-07 07:21 | 24.43230 | 54.65186 | 61 ft | 28 kts | 137° |
| 2026-05-07 07:22 | 24.43118 | 54.65271 | 63 ft | 20 kts | 153° |
| 2026-05-07 07:22 | 24.42982 | 54.65336 | 59 ft | 22 kts | 158° |
| 2026-05-07 07:22 | 24.42837 | 54.65413 | 57 ft | 24 kts | 146° |
| 2026-05-07 07:22 | 24.42717 | 54.65544 | 59 ft | 17 kts | 128° |
| 2026-05-07 07:23 | 24.42707 | 54.65558 | 60 ft | 0 kts | 128° |